<?xml version="1.0" encoding="UTF-8" standalone="no" ?>
<gpx xmlns="http://www.topografix.com/GPX/1/1" xmlns:xsi="http://www.w3.org/2001/XMLSchema-instance" xsi:schemaLocation="http://www.topografix.com/GPX/1/1 http://www.topografix.com/GPX/1/1/gpx.xsd" version="1.1" creator="VisuGPX - https://www.visugpx.com">
  <metadata>
    <name>Plan Villard depuis le Planay</name>
    <desc><![CDATA[<p>Type: Indéfini<br/>Heure de départ: 09:12 27 mars 2024<br/>Heure d'arrivée: 12:07 27 mars 2024<br/>Distance: 7,2 km (02:54)<br/>Temps déplacement: 02:13<br/>Vitesse moyenne: 2,46 km/h<br/>Vitesse moyenne mouv.: 3,21 km/h<br/>Vitesse Max.: 6,36 km/h<br/>Altitude minimale: 1159 m<br/>Altitude maximale: 1555 m<br/>Vitesse de montée: 392,1 m/h<br/>Vitesse de descente: 377,9 m/h<br/>Dénivelé positif: 429 m<br/>Dénivelé négatif: 429 m<br/>Temps de montée: 01:05<br/>Temps de descente: 01:08<br/></p><hr align="center" width="480" style="height: 2px; width: 517px"/>]]></desc>
  </metadata>
  <wpt lat="45.67216" lon="6.54323">
    <ele>1173.36</ele>
    <name><![CDATA[]]></name>
    <desc><![CDATA[<p><br /><h3>Nom: Segment: 1</h3><br />Type: Indéfini<br/>Heure de départ: 09:04 27 mars 2024<br/>Heure d'arrivée: 12:07 27 mars 2024<br/>Distance: 7,7km (03:02)<br/>Temps déplacement: 02:36<br/>Vitesse moyenne: 2,51 km/h<br/>Vitesse moyenne mouv.: 2,93 km/h<br/>Vitesse Max.: 26,11 km/h<br/>Altitude minimale: 1156 m<br/>Altitude maximale: 1551 m<br/>Vitesse de montée: 428,1 m/h<br/>Vitesse de descente: 335,8 m/h<br/>Dénivelé positif: 570 m<br/>Dénivelé négatif: 389 m<br/>Temps de montée: 01:19<br/>Temps de descente: 01:09<br/></p>]]></desc>
    <type><![CDATA[Point d'arrivée]]></type>
  </wpt>
  <trk>
    <name><![CDATA[Plan Villard]]></name>
    <desc><![CDATA[<p>Type: Indéfini<br/>Heure de départ: 09:12 27 mars 2024<br/>Heure d'arrivée: 12:07 27 mars 2024<br/>Distance: 7,2 km (02:54)<br/>Temps déplacement: 02:13<br/>Vitesse moyenne: 2,46 km/h<br/>Vitesse moyenne mouv.: 3,21 km/h<br/>Vitesse Max.: 6,36 km/h<br/>Altitude minimale: 1159 m<br/>Altitude maximale: 1555 m<br/>Vitesse de montée: 392,1 m/h<br/>Vitesse de descente: 377,9 m/h<br/>Dénivelé positif: 429 m<br/>Dénivelé négatif: 429 m<br/>Temps de montée: 01:05<br/>Temps de descente: 01:08<br/></p><hr align="center" width="480" style="height: 2px; width: 517px"/>]]></desc>
    <trkseg>
      <trkpt lat="45.67227" lon="6.54412">
        <ele>1168.66</ele>
        <time>2024-03-27T08:12:37.000Z</time>
      </trkpt>
      <trkpt lat="45.67245" lon="6.54408">
        <ele>1165.96</ele>
        <time>2024-03-27T08:12:56.000Z</time>
      </trkpt>
      <trkpt lat="45.67262" lon="6.54398">
        <ele>1162.68</ele>
        <time>2024-03-27T08:13:16.000Z</time>
      </trkpt>
      <trkpt lat="45.6728" lon="6.54402">
        <ele>1165.74</ele>
        <time>2024-03-27T08:13:36.000Z</time>
      </trkpt>
      <trkpt lat="45.67298" lon="6.54404">
        <ele>1168.65</ele>
        <time>2024-03-27T08:14:07.000Z</time>
      </trkpt>
      <trkpt lat="45.67306" lon="6.54429">
        <ele>1172.65</ele>
        <time>2024-03-27T08:14:37.000Z</time>
      </trkpt>
      <trkpt lat="45.67315" lon="6.54453">
        <ele>1175.35</ele>
        <time>2024-03-27T08:15:03.000Z</time>
      </trkpt>
      <trkpt lat="45.67323" lon="6.54476">
        <ele>1179.65</ele>
        <time>2024-03-27T08:15:29.000Z</time>
      </trkpt>
      <trkpt lat="45.67337" lon="6.54493">
        <ele>1183.65</ele>
        <time>2024-03-27T08:16:03.000Z</time>
      </trkpt>
      <trkpt lat="45.67352" lon="6.5451">
        <ele>1189.35</ele>
        <time>2024-03-27T08:16:35.000Z</time>
      </trkpt>
      <trkpt lat="45.67368" lon="6.54525">
        <ele>1193.62</ele>
        <time>2024-03-27T08:17:00.000Z</time>
      </trkpt>
      <trkpt lat="45.67384" lon="6.54537">
        <ele>1191.64</ele>
        <time>2024-03-27T08:17:28.000Z</time>
      </trkpt>
      <trkpt lat="45.67402" lon="6.5454">
        <ele>1195.61</ele>
        <time>2024-03-27T08:18:01.000Z</time>
      </trkpt>
      <trkpt lat="45.6742" lon="6.54544">
        <ele>1197.64</ele>
        <time>2024-03-27T08:18:32.000Z</time>
      </trkpt>
      <trkpt lat="45.67438" lon="6.54549">
        <ele>1202.55</ele>
        <time>2024-03-27T08:19:06.000Z</time>
      </trkpt>
      <trkpt lat="45.67453" lon="6.54528">
        <ele>1207.04</ele>
        <time>2024-03-27T08:19:44.000Z</time>
      </trkpt>
      <trkpt lat="45.67459" lon="6.54503">
        <ele>1211.43</ele>
        <time>2024-03-27T08:20:11.000Z</time>
      </trkpt>
      <trkpt lat="45.6746" lon="6.54476">
        <ele>1214.32</ele>
        <time>2024-03-27T08:20:44.000Z</time>
      </trkpt>
      <trkpt lat="45.67462" lon="6.5445">
        <ele>1222.65</ele>
        <time>2024-03-27T08:21:22.000Z</time>
      </trkpt>
      <trkpt lat="45.67457" lon="6.54425">
        <ele>1229.34</ele>
        <time>2024-03-27T08:21:51.000Z</time>
      </trkpt>
      <trkpt lat="45.67458" lon="6.54399">
        <ele>1232.83</ele>
        <time>2024-03-27T08:22:23.000Z</time>
      </trkpt>
      <trkpt lat="45.67465" lon="6.54375">
        <ele>1237.62</ele>
        <time>2024-03-27T08:23:11.000Z</time>
      </trkpt>
      <trkpt lat="45.67463" lon="6.54349">
        <ele>1232.74</ele>
        <time>2024-03-27T08:30:54.000Z</time>
      </trkpt>
      <trkpt lat="45.67457" lon="6.54323">
        <ele>1229.35</ele>
        <time>2024-03-27T08:31:14.000Z</time>
      </trkpt>
      <trkpt lat="45.67469" lon="6.54305">
        <ele>1237.56</ele>
        <time>2024-03-27T08:31:53.000Z</time>
      </trkpt>
      <trkpt lat="45.67486" lon="6.54294">
        <ele>1238.59</ele>
        <time>2024-03-27T08:32:33.000Z</time>
      </trkpt>
      <trkpt lat="45.67503" lon="6.54284">
        <ele>1245.67</ele>
        <time>2024-03-27T08:33:09.000Z</time>
      </trkpt>
      <trkpt lat="45.67515" lon="6.54265">
        <ele>1252.32</ele>
        <time>2024-03-27T08:33:38.000Z</time>
      </trkpt>
      <trkpt lat="45.67529" lon="6.54247">
        <ele>1258.62</ele>
        <time>2024-03-27T08:34:22.000Z</time>
      </trkpt>
      <trkpt lat="45.67544" lon="6.54232">
        <ele>1270.35</ele>
        <time>2024-03-27T08:35:05.000Z</time>
      </trkpt>
      <trkpt lat="45.67561" lon="6.54219">
        <ele>1275.37</ele>
        <time>2024-03-27T08:35:40.000Z</time>
      </trkpt>
      <trkpt lat="45.67576" lon="6.54204">
        <ele>1281.64</ele>
        <time>2024-03-27T08:36:27.000Z</time>
      </trkpt>
      <trkpt lat="45.67593" lon="6.54192">
        <ele>1289.65</ele>
        <time>2024-03-27T08:37:28.000Z</time>
      </trkpt>
      <trkpt lat="45.67609" lon="6.54179">
        <ele>1294.65</ele>
        <time>2024-03-27T08:38:14.000Z</time>
      </trkpt>
      <trkpt lat="45.67626" lon="6.54169">
        <ele>1303.94</ele>
        <time>2024-03-27T08:39:02.000Z</time>
      </trkpt>
      <trkpt lat="45.67644" lon="6.54162">
        <ele>1311.35</ele>
        <time>2024-03-27T08:39:49.000Z</time>
      </trkpt>
      <trkpt lat="45.6766" lon="6.5415">
        <ele>1316.35</ele>
        <time>2024-03-27T08:40:34.000Z</time>
      </trkpt>
      <trkpt lat="45.67677" lon="6.54142">
        <ele>1320.65</ele>
        <time>2024-03-27T08:41:07.000Z</time>
      </trkpt>
      <trkpt lat="45.67694" lon="6.54133">
        <ele>1326.34</ele>
        <time>2024-03-27T08:41:52.000Z</time>
      </trkpt>
      <trkpt lat="45.67712" lon="6.54123">
        <ele>1330.65</ele>
        <time>2024-03-27T08:42:35.000Z</time>
      </trkpt>
      <trkpt lat="45.67729" lon="6.54113">
        <ele>1337.65</ele>
        <time>2024-03-27T08:43:19.000Z</time>
      </trkpt>
      <trkpt lat="45.67745" lon="6.54098">
        <ele>1340.35</ele>
        <time>2024-03-27T08:43:58.000Z</time>
      </trkpt>
      <trkpt lat="45.67758" lon="6.54117">
        <ele>1353.88</ele>
        <time>2024-03-27T08:44:54.000Z</time>
      </trkpt>
      <trkpt lat="45.6777" lon="6.54136">
        <ele>1357.34</ele>
        <time>2024-03-27T08:45:19.000Z</time>
      </trkpt>
      <trkpt lat="45.67784" lon="6.54153">
        <ele>1357.88</ele>
        <time>2024-03-27T08:45:42.000Z</time>
      </trkpt>
      <trkpt lat="45.67799" lon="6.54168">
        <ele>1355.62</ele>
        <time>2024-03-27T08:46:03.000Z</time>
      </trkpt>
      <trkpt lat="45.6781" lon="6.54189">
        <ele>1354.64</ele>
        <time>2024-03-27T08:46:26.000Z</time>
      </trkpt>
      <trkpt lat="45.67822" lon="6.54208">
        <ele>1356.58</ele>
        <time>2024-03-27T08:47:00.000Z</time>
      </trkpt>
      <trkpt lat="45.67812" lon="6.5423">
        <ele>1349.67</ele>
        <time>2024-03-27T08:50:32.000Z</time>
      </trkpt>
      <trkpt lat="45.67806" lon="6.54255">
        <ele>1353.64</ele>
        <time>2024-03-27T08:50:55.000Z</time>
      </trkpt>
      <trkpt lat="45.67808" lon="6.5428">
        <ele>1357.6</ele>
        <time>2024-03-27T08:51:19.000Z</time>
      </trkpt>
      <trkpt lat="45.67814" lon="6.54255">
        <ele>1362.34</ele>
        <time>2024-03-27T08:51:42.000Z</time>
      </trkpt>
      <trkpt lat="45.67826" lon="6.54236">
        <ele>1367.34</ele>
        <time>2024-03-27T08:52:16.000Z</time>
      </trkpt>
      <trkpt lat="45.67843" lon="6.54227">
        <ele>1369.64</ele>
        <time>2024-03-27T08:52:40.000Z</time>
      </trkpt>
      <trkpt lat="45.67857" lon="6.54209">
        <ele>1368.67</ele>
        <time>2024-03-27T08:53:02.000Z</time>
      </trkpt>
      <trkpt lat="45.67855" lon="6.54183">
        <ele>1371.63</ele>
        <time>2024-03-27T08:53:24.000Z</time>
      </trkpt>
      <trkpt lat="45.67855" lon="6.54157">
        <ele>1372.43</ele>
        <time>2024-03-27T08:53:44.000Z</time>
      </trkpt>
      <trkpt lat="45.67855" lon="6.54131">
        <ele>1375.31</ele>
        <time>2024-03-27T08:54:04.000Z</time>
      </trkpt>
      <trkpt lat="45.67871" lon="6.54145">
        <ele>1377.34</ele>
        <time>2024-03-27T08:54:42.000Z</time>
      </trkpt>
      <trkpt lat="45.67873" lon="6.54171">
        <ele>1382.64</ele>
        <time>2024-03-27T08:55:05.000Z</time>
      </trkpt>
      <trkpt lat="45.67883" lon="6.54193">
        <ele>1383.64</ele>
        <time>2024-03-27T08:55:26.000Z</time>
      </trkpt>
      <trkpt lat="45.67892" lon="6.54216">
        <ele>1385.64</ele>
        <time>2024-03-27T08:55:45.000Z</time>
      </trkpt>
      <trkpt lat="45.67904" lon="6.54236">
        <ele>1382.64</ele>
        <time>2024-03-27T08:56:17.000Z</time>
      </trkpt>
      <trkpt lat="45.67908" lon="6.54261">
        <ele>1382.57</ele>
        <time>2024-03-27T08:56:43.000Z</time>
      </trkpt>
      <trkpt lat="45.67917" lon="6.54283">
        <ele>1385.94</ele>
        <time>2024-03-27T08:57:21.000Z</time>
      </trkpt>
      <trkpt lat="45.67932" lon="6.54301">
        <ele>1394.04</ele>
        <time>2024-03-27T08:58:07.000Z</time>
      </trkpt>
      <trkpt lat="45.67949" lon="6.5431">
        <ele>1408.6</ele>
        <time>2024-03-27T08:59:04.000Z</time>
      </trkpt>
      <trkpt lat="45.67967" lon="6.54316">
        <ele>1408.33</ele>
        <time>2024-03-27T09:00:42.000Z</time>
      </trkpt>
      <trkpt lat="45.67986" lon="6.54319">
        <ele>1420.63</ele>
        <time>2024-03-27T09:03:02.000Z</time>
      </trkpt>
      <trkpt lat="45.67982" lon="6.54344">
        <ele>1436.51</ele>
        <time>2024-03-27T09:04:11.000Z</time>
      </trkpt>
      <trkpt lat="45.67967" lon="6.54359">
        <ele>1439.94</ele>
        <time>2024-03-27T09:05:06.000Z</time>
      </trkpt>
      <trkpt lat="45.67949" lon="6.54363">
        <ele>1446.63</ele>
        <time>2024-03-27T09:05:43.000Z</time>
      </trkpt>
      <trkpt lat="45.67938" lon="6.54385">
        <ele>1456.63</ele>
        <time>2024-03-27T09:06:29.000Z</time>
      </trkpt>
      <trkpt lat="45.67926" lon="6.54406">
        <ele>1464.63</ele>
        <time>2024-03-27T09:07:05.000Z</time>
      </trkpt>
      <trkpt lat="45.67913" lon="6.54424">
        <ele>1471.33</ele>
        <time>2024-03-27T09:07:44.000Z</time>
      </trkpt>
      <trkpt lat="45.6793" lon="6.54437">
        <ele>1479.54</ele>
        <time>2024-03-27T09:08:49.000Z</time>
      </trkpt>
      <trkpt lat="45.67946" lon="6.54449">
        <ele>1481.33</ele>
        <time>2024-03-27T09:09:43.000Z</time>
      </trkpt>
      <trkpt lat="45.67962" lon="6.54463">
        <ele>1488.63</ele>
        <time>2024-03-27T09:10:36.000Z</time>
      </trkpt>
      <trkpt lat="45.67978" lon="6.54476">
        <ele>1489.41</ele>
        <time>2024-03-27T09:11:18.000Z</time>
      </trkpt>
      <trkpt lat="45.67994" lon="6.54487">
        <ele>1506.6</ele>
        <time>2024-03-27T09:14:21.000Z</time>
      </trkpt>
      <trkpt lat="45.68012" lon="6.54488">
        <ele>1507.62</ele>
        <time>2024-03-27T09:19:11.000Z</time>
      </trkpt>
      <trkpt lat="45.6803" lon="6.5448">
        <ele>1512.62</ele>
        <time>2024-03-27T09:20:03.000Z</time>
      </trkpt>
      <trkpt lat="45.68048" lon="6.54472">
        <ele>1515.62</ele>
        <time>2024-03-27T09:20:35.000Z</time>
      </trkpt>
      <trkpt lat="45.68066" lon="6.54469">
        <ele>1518.65</ele>
        <time>2024-03-27T09:21:03.000Z</time>
      </trkpt>
      <trkpt lat="45.68082" lon="6.54455">
        <ele>1517.53</ele>
        <time>2024-03-27T09:21:31.000Z</time>
      </trkpt>
      <trkpt lat="45.68098" lon="6.54441">
        <ele>1517.92</ele>
        <time>2024-03-27T09:21:55.000Z</time>
      </trkpt>
      <trkpt lat="45.68116" lon="6.54437">
        <ele>1520.62</ele>
        <time>2024-03-27T09:22:21.000Z</time>
      </trkpt>
      <trkpt lat="45.68136" lon="6.54441">
        <ele>1522.62</ele>
        <time>2024-03-27T09:22:54.000Z</time>
      </trkpt>
      <trkpt lat="45.68149" lon="6.54422">
        <ele>1522.62</ele>
        <time>2024-03-27T09:23:20.000Z</time>
      </trkpt>
      <trkpt lat="45.68158" lon="6.54399">
        <ele>1527.44</ele>
        <time>2024-03-27T09:23:52.000Z</time>
      </trkpt>
      <trkpt lat="45.68176" lon="6.54401">
        <ele>1537.63</ele>
        <time>2024-03-27T09:24:50.000Z</time>
      </trkpt>
      <trkpt lat="45.68189" lon="6.54382">
        <ele>1546.02</ele>
        <time>2024-03-27T09:25:52.000Z</time>
      </trkpt>
      <trkpt lat="45.68197" lon="6.54359">
        <ele>1553.53</ele>
        <time>2024-03-27T09:26:37.000Z</time>
      </trkpt>
      <trkpt lat="45.68206" lon="6.54336">
        <ele>1555.62</ele>
        <time>2024-03-27T09:27:08.000Z</time>
      </trkpt>
      <trkpt lat="45.68208" lon="6.5431">
        <ele>1552.62</ele>
        <time>2024-03-27T09:27:31.000Z</time>
      </trkpt>
      <trkpt lat="45.68213" lon="6.54284">
        <ele>1554.29</ele>
        <time>2024-03-27T09:27:50.000Z</time>
      </trkpt>
      <trkpt lat="45.6822" lon="6.5426">
        <ele>1555.56</ele>
        <time>2024-03-27T09:28:09.000Z</time>
      </trkpt>
      <trkpt lat="45.68232" lon="6.54238">
        <ele>1553.62</ele>
        <time>2024-03-27T09:28:30.000Z</time>
      </trkpt>
      <trkpt lat="45.68241" lon="6.54216">
        <ele>1552.54</ele>
        <time>2024-03-27T09:28:52.000Z</time>
      </trkpt>
      <trkpt lat="45.68251" lon="6.54239">
        <ele>1538.62</ele>
        <time>2024-03-27T09:37:17.000Z</time>
      </trkpt>
      <trkpt lat="45.6825" lon="6.54265">
        <ele>1538.53</ele>
        <time>2024-03-27T09:37:39.000Z</time>
      </trkpt>
      <trkpt lat="45.68248" lon="6.54291">
        <ele>1535.92</ele>
        <time>2024-03-27T09:37:58.000Z</time>
      </trkpt>
      <trkpt lat="45.68245" lon="6.54317">
        <ele>1534.71</ele>
        <time>2024-03-27T09:38:17.000Z</time>
      </trkpt>
      <trkpt lat="45.68241" lon="6.54342">
        <ele>1533.62</ele>
        <time>2024-03-27T09:38:36.000Z</time>
      </trkpt>
      <trkpt lat="45.68237" lon="6.54369">
        <ele>1532.9</ele>
        <time>2024-03-27T09:38:58.000Z</time>
      </trkpt>
      <trkpt lat="45.68237" lon="6.54395">
        <ele>1530.62</ele>
        <time>2024-03-27T09:39:18.000Z</time>
      </trkpt>
      <trkpt lat="45.68238" lon="6.54421">
        <ele>1527.62</ele>
        <time>2024-03-27T09:39:41.000Z</time>
      </trkpt>
      <trkpt lat="45.68234" lon="6.54447">
        <ele>1525.92</ele>
        <time>2024-03-27T09:40:03.000Z</time>
      </trkpt>
      <trkpt lat="45.68226" lon="6.54472">
        <ele>1525.34</ele>
        <time>2024-03-27T09:40:22.000Z</time>
      </trkpt>
      <trkpt lat="45.68221" lon="6.54496">
        <ele>1521.92</ele>
        <time>2024-03-27T09:40:40.000Z</time>
      </trkpt>
      <trkpt lat="45.68214" lon="6.54521">
        <ele>1520.7</ele>
        <time>2024-03-27T09:40:59.000Z</time>
      </trkpt>
      <trkpt lat="45.6821" lon="6.54547">
        <ele>1518.62</ele>
        <time>2024-03-27T09:41:21.000Z</time>
      </trkpt>
      <trkpt lat="45.682" lon="6.54568">
        <ele>1517.91</ele>
        <time>2024-03-27T09:41:38.000Z</time>
      </trkpt>
      <trkpt lat="45.68188" lon="6.54589">
        <ele>1517.61</ele>
        <time>2024-03-27T09:41:58.000Z</time>
      </trkpt>
      <trkpt lat="45.68174" lon="6.54605">
        <ele>1512.52</ele>
        <time>2024-03-27T09:42:21.000Z</time>
      </trkpt>
      <trkpt lat="45.68168" lon="6.54629">
        <ele>1511.62</ele>
        <time>2024-03-27T09:42:45.000Z</time>
      </trkpt>
      <trkpt lat="45.68174" lon="6.54654">
        <ele>1510.4</ele>
        <time>2024-03-27T09:43:07.000Z</time>
      </trkpt>
      <trkpt lat="45.68185" lon="6.54675">
        <ele>1508.61</ele>
        <time>2024-03-27T09:43:30.000Z</time>
      </trkpt>
      <trkpt lat="45.6819" lon="6.54701">
        <ele>1504.61</ele>
        <time>2024-03-27T09:43:53.000Z</time>
      </trkpt>
      <trkpt lat="45.68196" lon="6.54725">
        <ele>1503.33</ele>
        <time>2024-03-27T09:44:12.000Z</time>
      </trkpt>
      <trkpt lat="45.68203" lon="6.5475">
        <ele>1503.31</ele>
        <time>2024-03-27T09:44:30.000Z</time>
      </trkpt>
      <trkpt lat="45.6821" lon="6.54774">
        <ele>1503.91</ele>
        <time>2024-03-27T09:50:42.000Z</time>
      </trkpt>
      <trkpt lat="45.68221" lon="6.54796">
        <ele>1501.61</ele>
        <time>2024-03-27T09:51:03.000Z</time>
      </trkpt>
      <trkpt lat="45.68232" lon="6.54816">
        <ele>1500.61</ele>
        <time>2024-03-27T09:51:20.000Z</time>
      </trkpt>
      <trkpt lat="45.6824" lon="6.54841">
        <ele>1497.99</ele>
        <time>2024-03-27T09:51:41.000Z</time>
      </trkpt>
      <trkpt lat="45.6824" lon="6.54868">
        <ele>1495.54</ele>
        <time>2024-03-27T09:52:02.000Z</time>
      </trkpt>
      <trkpt lat="45.68242" lon="6.54896">
        <ele>1491.9</ele>
        <time>2024-03-27T09:52:28.000Z</time>
      </trkpt>
      <trkpt lat="45.68244" lon="6.54922">
        <ele>1489.6</ele>
        <time>2024-03-27T09:52:52.000Z</time>
      </trkpt>
      <trkpt lat="45.68242" lon="6.54947">
        <ele>1488.62</ele>
        <time>2024-03-27T09:53:10.000Z</time>
      </trkpt>
      <trkpt lat="45.68252" lon="6.54969">
        <ele>1487.6</ele>
        <time>2024-03-27T09:53:27.000Z</time>
      </trkpt>
      <trkpt lat="45.68261" lon="6.54992">
        <ele>1488.3</ele>
        <time>2024-03-27T09:53:44.000Z</time>
      </trkpt>
      <trkpt lat="45.68268" lon="6.55016">
        <ele>1486.68</ele>
        <time>2024-03-27T09:54:02.000Z</time>
      </trkpt>
      <trkpt lat="45.68269" lon="6.55043">
        <ele>1480.69</ele>
        <time>2024-03-27T09:54:24.000Z</time>
      </trkpt>
      <trkpt lat="45.68256" lon="6.55062">
        <ele>1479.89</ele>
        <time>2024-03-27T09:54:45.000Z</time>
      </trkpt>
      <trkpt lat="45.68238" lon="6.55067">
        <ele>1480.5</ele>
        <time>2024-03-27T09:55:08.000Z</time>
      </trkpt>
      <trkpt lat="45.68219" lon="6.5507">
        <ele>1484.5</ele>
        <time>2024-03-27T09:55:25.000Z</time>
      </trkpt>
      <trkpt lat="45.682" lon="6.5507">
        <ele>1485.59</ele>
        <time>2024-03-27T09:55:43.000Z</time>
      </trkpt>
      <trkpt lat="45.68183" lon="6.55061">
        <ele>1482.9</ele>
        <time>2024-03-27T09:56:01.000Z</time>
      </trkpt>
      <trkpt lat="45.68167" lon="6.55049">
        <ele>1478.61</ele>
        <time>2024-03-27T09:56:18.000Z</time>
      </trkpt>
      <trkpt lat="45.68153" lon="6.55031">
        <ele>1467.9</ele>
        <time>2024-03-27T09:58:15.000Z</time>
      </trkpt>
      <trkpt lat="45.68138" lon="6.55016">
        <ele>1469.51</ele>
        <time>2024-03-27T09:58:43.000Z</time>
      </trkpt>
      <trkpt lat="45.68122" lon="6.55003">
        <ele>1471.59</ele>
        <time>2024-03-27T09:59:01.000Z</time>
      </trkpt>
      <trkpt lat="45.68106" lon="6.54987">
        <ele>1471.6</ele>
        <time>2024-03-27T09:59:20.000Z</time>
      </trkpt>
      <trkpt lat="45.68093" lon="6.54969">
        <ele>1467.6</ele>
        <time>2024-03-27T09:59:41.000Z</time>
      </trkpt>
      <trkpt lat="45.68077" lon="6.54955">
        <ele>1466.39</ele>
        <time>2024-03-27T09:59:59.000Z</time>
      </trkpt>
      <trkpt lat="45.68062" lon="6.54938">
        <ele>1463.6</ele>
        <time>2024-03-27T10:00:19.000Z</time>
      </trkpt>
      <trkpt lat="45.68045" lon="6.54926">
        <ele>1461.63</ele>
        <time>2024-03-27T10:00:38.000Z</time>
      </trkpt>
      <trkpt lat="45.6803" lon="6.54912">
        <ele>1457.85</ele>
        <time>2024-03-27T10:00:55.000Z</time>
      </trkpt>
      <trkpt lat="45.68016" lon="6.54895">
        <ele>1455.61</ele>
        <time>2024-03-27T10:01:14.000Z</time>
      </trkpt>
      <trkpt lat="45.68002" lon="6.54879">
        <ele>1454.64</ele>
        <time>2024-03-27T10:01:31.000Z</time>
      </trkpt>
      <trkpt lat="45.67986" lon="6.54865">
        <ele>1454.61</ele>
        <time>2024-03-27T10:01:48.000Z</time>
      </trkpt>
      <trkpt lat="45.67971" lon="6.5485">
        <ele>1451.91</ele>
        <time>2024-03-27T10:02:07.000Z</time>
      </trkpt>
      <trkpt lat="45.67955" lon="6.54835">
        <ele>1448.55</ele>
        <time>2024-03-27T10:02:33.000Z</time>
      </trkpt>
      <trkpt lat="45.67945" lon="6.54814">
        <ele>1445.62</ele>
        <time>2024-03-27T10:02:51.000Z</time>
      </trkpt>
      <trkpt lat="45.67934" lon="6.54793">
        <ele>1442.68</ele>
        <time>2024-03-27T10:03:10.000Z</time>
      </trkpt>
      <trkpt lat="45.67921" lon="6.54774">
        <ele>1439.62</ele>
        <time>2024-03-27T10:03:27.000Z</time>
      </trkpt>
      <trkpt lat="45.67908" lon="6.54756">
        <ele>1438.62</ele>
        <time>2024-03-27T10:03:48.000Z</time>
      </trkpt>
      <trkpt lat="45.67895" lon="6.54739">
        <ele>1436.62</ele>
        <time>2024-03-27T10:04:04.000Z</time>
      </trkpt>
      <trkpt lat="45.67883" lon="6.54718">
        <ele>1434.59</ele>
        <time>2024-03-27T10:04:22.000Z</time>
      </trkpt>
      <trkpt lat="45.67871" lon="6.54699">
        <ele>1431.72</ele>
        <time>2024-03-27T10:04:40.000Z</time>
      </trkpt>
      <trkpt lat="45.6786" lon="6.54677">
        <ele>1430.62</ele>
        <time>2024-03-27T10:04:58.000Z</time>
      </trkpt>
      <trkpt lat="45.67849" lon="6.54656">
        <ele>1429.69</ele>
        <time>2024-03-27T10:05:16.000Z</time>
      </trkpt>
      <trkpt lat="45.6784" lon="6.54633">
        <ele>1425.65</ele>
        <time>2024-03-27T10:05:33.000Z</time>
      </trkpt>
      <trkpt lat="45.67829" lon="6.5461">
        <ele>1423.72</ele>
        <time>2024-03-27T10:05:50.000Z</time>
      </trkpt>
      <trkpt lat="45.6782" lon="6.54588">
        <ele>1422.54</ele>
        <time>2024-03-27T10:06:07.000Z</time>
      </trkpt>
      <trkpt lat="45.67811" lon="6.54564">
        <ele>1418.72</ele>
        <time>2024-03-27T10:06:27.000Z</time>
      </trkpt>
      <trkpt lat="45.67804" lon="6.5454">
        <ele>1416.65</ele>
        <time>2024-03-27T10:06:45.000Z</time>
      </trkpt>
      <trkpt lat="45.67796" lon="6.54517">
        <ele>1412.63</ele>
        <time>2024-03-27T10:07:04.000Z</time>
      </trkpt>
      <trkpt lat="45.67789" lon="6.54493">
        <ele>1410.66</ele>
        <time>2024-03-27T10:07:21.000Z</time>
      </trkpt>
      <trkpt lat="45.67788" lon="6.54466">
        <ele>1408.63</ele>
        <time>2024-03-27T10:07:40.000Z</time>
      </trkpt>
      <trkpt lat="45.67794" lon="6.54441">
        <ele>1406.87</ele>
        <time>2024-03-27T10:07:59.000Z</time>
      </trkpt>
      <trkpt lat="45.678" lon="6.54417">
        <ele>1404.64</ele>
        <time>2024-03-27T10:08:19.000Z</time>
      </trkpt>
      <trkpt lat="45.67805" lon="6.54392">
        <ele>1402.66</ele>
        <time>2024-03-27T10:08:36.000Z</time>
      </trkpt>
      <trkpt lat="45.67813" lon="6.54368">
        <ele>1401.64</ele>
        <time>2024-03-27T10:08:53.000Z</time>
      </trkpt>
      <trkpt lat="45.67822" lon="6.54345">
        <ele>1398.64</ele>
        <time>2024-03-27T10:09:12.000Z</time>
      </trkpt>
      <trkpt lat="45.67833" lon="6.54324">
        <ele>1396.94</ele>
        <time>2024-03-27T10:09:29.000Z</time>
      </trkpt>
      <trkpt lat="45.67844" lon="6.54303">
        <ele>1394.94</ele>
        <time>2024-03-27T10:09:46.000Z</time>
      </trkpt>
      <trkpt lat="45.67859" lon="6.54287">
        <ele>1392.64</ele>
        <time>2024-03-27T10:10:04.000Z</time>
      </trkpt>
      <trkpt lat="45.67878" lon="6.54281">
        <ele>1387.92</ele>
        <time>2024-03-27T10:10:26.000Z</time>
      </trkpt>
      <trkpt lat="45.67896" lon="6.54275">
        <ele>1386.63</ele>
        <time>2024-03-27T10:10:43.000Z</time>
      </trkpt>
      <trkpt lat="45.6791" lon="6.54257">
        <ele>1383.94</ele>
        <time>2024-03-27T10:11:01.000Z</time>
      </trkpt>
      <trkpt lat="45.67904" lon="6.54232">
        <ele>1380.94</ele>
        <time>2024-03-27T10:11:21.000Z</time>
      </trkpt>
      <trkpt lat="45.67893" lon="6.54211">
        <ele>1380.85</ele>
        <time>2024-03-27T10:11:38.000Z</time>
      </trkpt>
      <trkpt lat="45.67883" lon="6.54188">
        <ele>1379.94</ele>
        <time>2024-03-27T10:11:55.000Z</time>
      </trkpt>
      <trkpt lat="45.67875" lon="6.54165">
        <ele>1380.64</ele>
        <time>2024-03-27T10:12:13.000Z</time>
      </trkpt>
      <trkpt lat="45.67871" lon="6.54139">
        <ele>1377.64</ele>
        <time>2024-03-27T10:12:33.000Z</time>
      </trkpt>
      <trkpt lat="45.67859" lon="6.54158">
        <ele>1377.55</ele>
        <time>2024-03-27T10:13:16.000Z</time>
      </trkpt>
      <trkpt lat="45.6786" lon="6.54186">
        <ele>1373.37</ele>
        <time>2024-03-27T10:13:32.000Z</time>
      </trkpt>
      <trkpt lat="45.67861" lon="6.54212">
        <ele>1368.06</ele>
        <time>2024-03-27T10:13:49.000Z</time>
      </trkpt>
      <trkpt lat="45.67849" lon="6.54233">
        <ele>1364.93</ele>
        <time>2024-03-27T10:14:07.000Z</time>
      </trkpt>
      <trkpt lat="45.67832" lon="6.54241">
        <ele>1366.34</ele>
        <time>2024-03-27T10:14:22.000Z</time>
      </trkpt>
      <trkpt lat="45.67818" lon="6.54257">
        <ele>1365.35</ele>
        <time>2024-03-27T10:14:39.000Z</time>
      </trkpt>
      <trkpt lat="45.67813" lon="6.54282">
        <ele>1365.65</ele>
        <time>2024-03-27T10:14:56.000Z</time>
      </trkpt>
      <trkpt lat="45.67809" lon="6.54256">
        <ele>1358.94</ele>
        <time>2024-03-27T10:15:23.000Z</time>
      </trkpt>
      <trkpt lat="45.67817" lon="6.54232">
        <ele>1357.73</ele>
        <time>2024-03-27T10:15:40.000Z</time>
      </trkpt>
      <trkpt lat="45.6782" lon="6.54206">
        <ele>1355.65</ele>
        <time>2024-03-27T10:15:57.000Z</time>
      </trkpt>
      <trkpt lat="45.67808" lon="6.54184">
        <ele>1355.64</ele>
        <time>2024-03-27T10:16:12.000Z</time>
      </trkpt>
      <trkpt lat="45.67796" lon="6.54164">
        <ele>1355.73</ele>
        <time>2024-03-27T10:16:29.000Z</time>
      </trkpt>
      <trkpt lat="45.67782" lon="6.54147">
        <ele>1354.64</ele>
        <time>2024-03-27T10:16:46.000Z</time>
      </trkpt>
      <trkpt lat="45.67769" lon="6.54128">
        <ele>1352.65</ele>
        <time>2024-03-27T10:17:03.000Z</time>
      </trkpt>
      <trkpt lat="45.67759" lon="6.54106">
        <ele>1349.74</ele>
        <time>2024-03-27T10:17:21.000Z</time>
      </trkpt>
      <trkpt lat="45.67755" lon="6.5408">
        <ele>1348.65</ele>
        <time>2024-03-27T10:17:38.000Z</time>
      </trkpt>
      <trkpt lat="45.67757" lon="6.54054">
        <ele>1342.66</ele>
        <time>2024-03-27T10:17:57.000Z</time>
      </trkpt>
      <trkpt lat="45.67756" lon="6.54027">
        <ele>1339.95</ele>
        <time>2024-03-27T10:18:12.000Z</time>
      </trkpt>
      <trkpt lat="45.67747" lon="6.54002">
        <ele>1338.74</ele>
        <time>2024-03-27T10:18:28.000Z</time>
      </trkpt>
      <trkpt lat="45.67733" lon="6.53984">
        <ele>1339.64</ele>
        <time>2024-03-27T10:18:44.000Z</time>
      </trkpt>
      <trkpt lat="45.6772" lon="6.53965">
        <ele>1337.68</ele>
        <time>2024-03-27T10:19:05.000Z</time>
      </trkpt>
      <trkpt lat="45.67709" lon="6.53944">
        <ele>1337.64</ele>
        <time>2024-03-27T10:19:24.000Z</time>
      </trkpt>
      <trkpt lat="45.67695" lon="6.53928">
        <ele>1336.66</ele>
        <time>2024-03-27T10:19:48.000Z</time>
      </trkpt>
      <trkpt lat="45.67679" lon="6.53916">
        <ele>1338.57</ele>
        <time>2024-03-27T10:20:07.000Z</time>
      </trkpt>
      <trkpt lat="45.67663" lon="6.53903">
        <ele>1340.35</ele>
        <time>2024-03-27T10:20:26.000Z</time>
      </trkpt>
      <trkpt lat="45.67651" lon="6.53883">
        <ele>1345.66</ele>
        <time>2024-03-27T10:20:46.000Z</time>
      </trkpt>
      <trkpt lat="45.67654" lon="6.53857">
        <ele>1344.89</ele>
        <time>2024-03-27T10:21:03.000Z</time>
      </trkpt>
      <trkpt lat="45.67659" lon="6.53832">
        <ele>1340.66</ele>
        <time>2024-03-27T10:21:21.000Z</time>
      </trkpt>
      <trkpt lat="45.67658" lon="6.53806">
        <ele>1341.66</ele>
        <time>2024-03-27T10:21:39.000Z</time>
      </trkpt>
      <trkpt lat="45.67655" lon="6.5378">
        <ele>1340.64</ele>
        <time>2024-03-27T10:21:55.000Z</time>
      </trkpt>
      <trkpt lat="45.67659" lon="6.53754">
        <ele>1339.66</ele>
        <time>2024-03-27T10:22:10.000Z</time>
      </trkpt>
      <trkpt lat="45.67653" lon="6.53728">
        <ele>1340.57</ele>
        <time>2024-03-27T10:22:25.000Z</time>
      </trkpt>
      <trkpt lat="45.67641" lon="6.53707">
        <ele>1342.67</ele>
        <time>2024-03-27T10:22:41.000Z</time>
      </trkpt>
      <trkpt lat="45.67625" lon="6.53694">
        <ele>1345.63</ele>
        <time>2024-03-27T10:22:59.000Z</time>
      </trkpt>
      <trkpt lat="45.67609" lon="6.5368">
        <ele>1346.64</ele>
        <time>2024-03-27T10:23:17.000Z</time>
      </trkpt>
      <trkpt lat="45.67602" lon="6.53655">
        <ele>1348.67</ele>
        <time>2024-03-27T10:23:34.000Z</time>
      </trkpt>
      <trkpt lat="45.67609" lon="6.53631">
        <ele>1345.7</ele>
        <time>2024-03-27T10:23:49.000Z</time>
      </trkpt>
      <trkpt lat="45.67622" lon="6.53611">
        <ele>1341.68</ele>
        <time>2024-03-27T10:24:04.000Z</time>
      </trkpt>
      <trkpt lat="45.67632" lon="6.53589">
        <ele>1340.68</ele>
        <time>2024-03-27T10:24:18.000Z</time>
      </trkpt>
      <trkpt lat="45.67633" lon="6.53563">
        <ele>1340.36</ele>
        <time>2024-03-27T10:24:34.000Z</time>
      </trkpt>
      <trkpt lat="45.67625" lon="6.53539">
        <ele>1342.88</ele>
        <time>2024-03-27T10:24:50.000Z</time>
      </trkpt>
      <trkpt lat="45.67614" lon="6.53517">
        <ele>1343.37</ele>
        <time>2024-03-27T10:25:06.000Z</time>
      </trkpt>
      <trkpt lat="45.67602" lon="6.53496">
        <ele>1345.59</ele>
        <time>2024-03-27T10:25:21.000Z</time>
      </trkpt>
      <trkpt lat="45.67593" lon="6.53472">
        <ele>1345.99</ele>
        <time>2024-03-27T10:25:35.000Z</time>
      </trkpt>
      <trkpt lat="45.6758" lon="6.53453">
        <ele>1340.7</ele>
        <time>2024-03-27T10:25:51.000Z</time>
      </trkpt>
      <trkpt lat="45.67563" lon="6.53443">
        <ele>1340.77</ele>
        <time>2024-03-27T10:26:05.000Z</time>
      </trkpt>
      <trkpt lat="45.67546" lon="6.53431">
        <ele>1340.89</ele>
        <time>2024-03-27T10:26:20.000Z</time>
      </trkpt>
      <trkpt lat="45.67529" lon="6.5342">
        <ele>1340.65</ele>
        <time>2024-03-27T10:26:35.000Z</time>
      </trkpt>
      <trkpt lat="45.67531" lon="6.53393">
        <ele>1339.71</ele>
        <time>2024-03-27T10:26:49.000Z</time>
      </trkpt>
      <trkpt lat="45.67534" lon="6.53367">
        <ele>1335.98</ele>
        <time>2024-03-27T10:27:09.000Z</time>
      </trkpt>
      <trkpt lat="45.67522" lon="6.53345">
        <ele>1331.99</ele>
        <time>2024-03-27T10:27:29.000Z</time>
      </trkpt>
      <trkpt lat="45.67513" lon="6.53323">
        <ele>1330.75</ele>
        <time>2024-03-27T10:27:42.000Z</time>
      </trkpt>
      <trkpt lat="45.67504" lon="6.53299">
        <ele>1328.98</ele>
        <time>2024-03-27T10:27:55.000Z</time>
      </trkpt>
      <trkpt lat="45.67495" lon="6.53275">
        <ele>1329.69</ele>
        <time>2024-03-27T10:28:07.000Z</time>
      </trkpt>
      <trkpt lat="45.67488" lon="6.53252">
        <ele>1330.62</ele>
        <time>2024-03-27T10:28:20.000Z</time>
      </trkpt>
      <trkpt lat="45.67486" lon="6.53226">
        <ele>1327.67</ele>
        <time>2024-03-27T10:28:33.000Z</time>
      </trkpt>
      <trkpt lat="45.67486" lon="6.53199">
        <ele>1326.47</ele>
        <time>2024-03-27T10:28:47.000Z</time>
      </trkpt>
      <trkpt lat="45.67489" lon="6.53173">
        <ele>1323.02</ele>
        <time>2024-03-27T10:29:01.000Z</time>
      </trkpt>
      <trkpt lat="45.67494" lon="6.53147">
        <ele>1318.42</ele>
        <time>2024-03-27T10:29:18.000Z</time>
      </trkpt>
      <trkpt lat="45.67481" lon="6.53167">
        <ele>1315.99</ele>
        <time>2024-03-27T10:29:35.000Z</time>
      </trkpt>
      <trkpt lat="45.67477" lon="6.53193">
        <ele>1311.17</ele>
        <time>2024-03-27T10:29:51.000Z</time>
      </trkpt>
      <trkpt lat="45.67475" lon="6.5322">
        <ele>1313.71</ele>
        <time>2024-03-27T10:30:05.000Z</time>
      </trkpt>
      <trkpt lat="45.67472" lon="6.53247">
        <ele>1313.78</ele>
        <time>2024-03-27T10:30:21.000Z</time>
      </trkpt>
      <trkpt lat="45.67472" lon="6.53273">
        <ele>1307</ele>
        <time>2024-03-27T10:30:36.000Z</time>
      </trkpt>
      <trkpt lat="45.67476" lon="6.53298">
        <ele>1302.7</ele>
        <time>2024-03-27T10:30:50.000Z</time>
      </trkpt>
      <trkpt lat="45.67482" lon="6.53323">
        <ele>1299.69</ele>
        <time>2024-03-27T10:31:06.000Z</time>
      </trkpt>
      <trkpt lat="45.67484" lon="6.5335">
        <ele>1297.98</ele>
        <time>2024-03-27T10:31:23.000Z</time>
      </trkpt>
      <trkpt lat="45.67476" lon="6.53374">
        <ele>1297.7</ele>
        <time>2024-03-27T10:31:38.000Z</time>
      </trkpt>
      <trkpt lat="45.67462" lon="6.53393">
        <ele>1298.98</ele>
        <time>2024-03-27T10:31:52.000Z</time>
      </trkpt>
      <trkpt lat="45.67449" lon="6.53412">
        <ele>1299.59</ele>
        <time>2024-03-27T10:32:06.000Z</time>
      </trkpt>
      <trkpt lat="45.67434" lon="6.53425">
        <ele>1295.8</ele>
        <time>2024-03-27T10:32:21.000Z</time>
      </trkpt>
      <trkpt lat="45.67419" lon="6.53442">
        <ele>1293.78</ele>
        <time>2024-03-27T10:32:36.000Z</time>
      </trkpt>
      <trkpt lat="45.67412" lon="6.53466">
        <ele>1289.78</ele>
        <time>2024-03-27T10:32:51.000Z</time>
      </trkpt>
      <trkpt lat="45.67419" lon="6.53491">
        <ele>1285.98</ele>
        <time>2024-03-27T10:33:05.000Z</time>
      </trkpt>
      <trkpt lat="45.67423" lon="6.53516">
        <ele>1281.68</ele>
        <time>2024-03-27T10:33:22.000Z</time>
      </trkpt>
      <trkpt lat="45.67427" lon="6.53543">
        <ele>1280.68</ele>
        <time>2024-03-27T10:33:36.000Z</time>
      </trkpt>
      <trkpt lat="45.6743" lon="6.53568">
        <ele>1278.69</ele>
        <time>2024-03-27T10:33:50.000Z</time>
      </trkpt>
      <trkpt lat="45.67434" lon="6.53593">
        <ele>1276.77</ele>
        <time>2024-03-27T10:34:03.000Z</time>
      </trkpt>
      <trkpt lat="45.67439" lon="6.53621">
        <ele>1273.68</ele>
        <time>2024-03-27T10:34:23.000Z</time>
      </trkpt>
      <trkpt lat="45.67446" lon="6.53645">
        <ele>1271.65</ele>
        <time>2024-03-27T10:34:39.000Z</time>
      </trkpt>
      <trkpt lat="45.67441" lon="6.5367">
        <ele>1271.59</ele>
        <time>2024-03-27T10:34:57.000Z</time>
      </trkpt>
      <trkpt lat="45.67451" lon="6.53691">
        <ele>1268.67</ele>
        <time>2024-03-27T10:35:12.000Z</time>
      </trkpt>
      <trkpt lat="45.67469" lon="6.53702">
        <ele>1265.97</ele>
        <time>2024-03-27T10:35:29.000Z</time>
      </trkpt>
      <trkpt lat="45.67482" lon="6.53721">
        <ele>1263.76</ele>
        <time>2024-03-27T10:35:43.000Z</time>
      </trkpt>
      <trkpt lat="45.67485" lon="6.53747">
        <ele>1261.76</ele>
        <time>2024-03-27T10:35:59.000Z</time>
      </trkpt>
      <trkpt lat="45.67491" lon="6.53772">
        <ele>1259.88</ele>
        <time>2024-03-27T10:36:15.000Z</time>
      </trkpt>
      <trkpt lat="45.67493" lon="6.53798">
        <ele>1260.67</ele>
        <time>2024-03-27T10:36:30.000Z</time>
      </trkpt>
      <trkpt lat="45.67494" lon="6.53825">
        <ele>1259.67</ele>
        <time>2024-03-27T10:36:48.000Z</time>
      </trkpt>
      <trkpt lat="45.67494" lon="6.53852">
        <ele>1257.69</ele>
        <time>2024-03-27T10:37:04.000Z</time>
      </trkpt>
      <trkpt lat="45.67494" lon="6.53879">
        <ele>1256.67</ele>
        <time>2024-03-27T10:37:20.000Z</time>
      </trkpt>
      <trkpt lat="45.67494" lon="6.53906">
        <ele>1255.66</ele>
        <time>2024-03-27T10:37:36.000Z</time>
      </trkpt>
      <trkpt lat="45.67495" lon="6.53932">
        <ele>1252.68</ele>
        <time>2024-03-27T10:37:51.000Z</time>
      </trkpt>
      <trkpt lat="45.67496" lon="6.53959">
        <ele>1250.67</ele>
        <time>2024-03-27T10:38:11.000Z</time>
      </trkpt>
      <trkpt lat="45.67498" lon="6.53985">
        <ele>1247.69</ele>
        <time>2024-03-27T10:38:30.000Z</time>
      </trkpt>
      <trkpt lat="45.67505" lon="6.54011">
        <ele>1244.69</ele>
        <time>2024-03-27T10:38:46.000Z</time>
      </trkpt>
      <trkpt lat="45.67507" lon="6.54037">
        <ele>1243.36</ele>
        <time>2024-03-27T10:39:02.000Z</time>
      </trkpt>
      <trkpt lat="45.67498" lon="6.54061">
        <ele>1242.66</ele>
        <time>2024-03-27T10:39:21.000Z</time>
      </trkpt>
      <trkpt lat="45.67486" lon="6.54079">
        <ele>1242.65</ele>
        <time>2024-03-27T10:39:35.000Z</time>
      </trkpt>
      <trkpt lat="45.67475" lon="6.54101">
        <ele>1238.96</ele>
        <time>2024-03-27T10:39:51.000Z</time>
      </trkpt>
      <trkpt lat="45.67464" lon="6.54123">
        <ele>1236.89</ele>
        <time>2024-03-27T10:40:06.000Z</time>
      </trkpt>
      <trkpt lat="45.67455" lon="6.54145">
        <ele>1234.66</ele>
        <time>2024-03-27T10:40:22.000Z</time>
      </trkpt>
      <trkpt lat="45.67452" lon="6.54172">
        <ele>1232.68</ele>
        <time>2024-03-27T10:40:38.000Z</time>
      </trkpt>
      <trkpt lat="45.67454" lon="6.54198">
        <ele>1230.75</ele>
        <time>2024-03-27T10:40:53.000Z</time>
      </trkpt>
      <trkpt lat="45.67453" lon="6.54224">
        <ele>1231.56</ele>
        <time>2024-03-27T10:41:09.000Z</time>
      </trkpt>
      <trkpt lat="45.67439" lon="6.54206">
        <ele>1226.76</ele>
        <time>2024-03-27T10:42:06.000Z</time>
      </trkpt>
      <trkpt lat="45.67433" lon="6.54181">
        <ele>1226.67</ele>
        <time>2024-03-27T10:42:25.000Z</time>
      </trkpt>
      <trkpt lat="45.67429" lon="6.54155">
        <ele>1223.75</ele>
        <time>2024-03-27T10:42:42.000Z</time>
      </trkpt>
      <trkpt lat="45.67431" lon="6.54128">
        <ele>1219.75</ele>
        <time>2024-03-27T10:42:57.000Z</time>
      </trkpt>
      <trkpt lat="45.67439" lon="6.54104">
        <ele>1218.68</ele>
        <time>2024-03-27T10:43:12.000Z</time>
      </trkpt>
      <trkpt lat="45.67443" lon="6.54078">
        <ele>1218.56</ele>
        <time>2024-03-27T10:43:35.000Z</time>
      </trkpt>
      <trkpt lat="45.67439" lon="6.54051">
        <ele>1215.57</ele>
        <time>2024-03-27T10:43:51.000Z</time>
      </trkpt>
      <trkpt lat="45.67427" lon="6.5403">
        <ele>1216.6</ele>
        <time>2024-03-27T10:44:04.000Z</time>
      </trkpt>
      <trkpt lat="45.67414" lon="6.54011">
        <ele>1215.66</ele>
        <time>2024-03-27T10:44:18.000Z</time>
      </trkpt>
      <trkpt lat="45.67401" lon="6.53992">
        <ele>1215.66</ele>
        <time>2024-03-27T10:44:32.000Z</time>
      </trkpt>
      <trkpt lat="45.67392" lon="6.53968">
        <ele>1213.67</ele>
        <time>2024-03-27T10:44:48.000Z</time>
      </trkpt>
      <trkpt lat="45.67382" lon="6.53945">
        <ele>1214.43</ele>
        <time>2024-03-27T10:45:03.000Z</time>
      </trkpt>
      <trkpt lat="45.67372" lon="6.53924">
        <ele>1209.73</ele>
        <time>2024-03-27T10:45:17.000Z</time>
      </trkpt>
      <trkpt lat="45.67359" lon="6.53905">
        <ele>1209.66</ele>
        <time>2024-03-27T10:45:32.000Z</time>
      </trkpt>
      <trkpt lat="45.67346" lon="6.53886">
        <ele>1207.97</ele>
        <time>2024-03-27T10:45:47.000Z</time>
      </trkpt>
      <trkpt lat="45.67334" lon="6.53865">
        <ele>1205.38</ele>
        <time>2024-03-27T10:46:03.000Z</time>
      </trkpt>
      <trkpt lat="45.67317" lon="6.53852">
        <ele>1204.67</ele>
        <time>2024-03-27T10:46:19.000Z</time>
      </trkpt>
      <trkpt lat="45.67304" lon="6.53871">
        <ele>1207</ele>
        <time>2024-03-27T10:46:35.000Z</time>
      </trkpt>
      <trkpt lat="45.67296" lon="6.53895">
        <ele>1203.68</ele>
        <time>2024-03-27T10:46:49.000Z</time>
      </trkpt>
      <trkpt lat="45.67293" lon="6.53922">
        <ele>1201.67</ele>
        <time>2024-03-27T10:47:05.000Z</time>
      </trkpt>
      <trkpt lat="45.67286" lon="6.53947">
        <ele>1201.67</ele>
        <time>2024-03-27T10:47:24.000Z</time>
      </trkpt>
      <trkpt lat="45.6728" lon="6.53971">
        <ele>1199.98</ele>
        <time>2024-03-27T10:47:41.000Z</time>
      </trkpt>
      <trkpt lat="45.67267" lon="6.5399">
        <ele>1200.67</ele>
        <time>2024-03-27T10:47:58.000Z</time>
      </trkpt>
      <trkpt lat="45.67251" lon="6.54005">
        <ele>1202.64</ele>
        <time>2024-03-27T10:48:14.000Z</time>
      </trkpt>
      <trkpt lat="45.67236" lon="6.5402">
        <ele>1202.68</ele>
        <time>2024-03-27T10:48:29.000Z</time>
      </trkpt>
      <trkpt lat="45.67221" lon="6.54036">
        <ele>1204.64</ele>
        <time>2024-03-27T10:48:44.000Z</time>
      </trkpt>
      <trkpt lat="45.67211" lon="6.54058">
        <ele>1203.67</ele>
        <time>2024-03-27T10:49:03.000Z</time>
      </trkpt>
      <trkpt lat="45.67202" lon="6.54082">
        <ele>1200.76</ele>
        <time>2024-03-27T10:49:20.000Z</time>
      </trkpt>
      <trkpt lat="45.67194" lon="6.54107">
        <ele>1198.67</ele>
        <time>2024-03-27T10:49:36.000Z</time>
      </trkpt>
      <trkpt lat="45.67188" lon="6.54132">
        <ele>1194.97</ele>
        <time>2024-03-27T10:49:52.000Z</time>
      </trkpt>
      <trkpt lat="45.67178" lon="6.54154">
        <ele>1192.67</ele>
        <time>2024-03-27T10:50:08.000Z</time>
      </trkpt>
      <trkpt lat="45.67169" lon="6.54177">
        <ele>1191.97</ele>
        <time>2024-03-27T10:50:22.000Z</time>
      </trkpt>
      <trkpt lat="45.67166" lon="6.54203">
        <ele>1186.97</ele>
        <time>2024-03-27T10:50:39.000Z</time>
      </trkpt>
      <trkpt lat="45.67167" lon="6.54229">
        <ele>1183.67</ele>
        <time>2024-03-27T10:50:53.000Z</time>
      </trkpt>
      <trkpt lat="45.67167" lon="6.54255">
        <ele>1182.67</ele>
        <time>2024-03-27T10:51:08.000Z</time>
      </trkpt>
      <trkpt lat="45.67165" lon="6.54282">
        <ele>1180.75</ele>
        <time>2024-03-27T10:51:23.000Z</time>
      </trkpt>
      <trkpt lat="45.6716" lon="6.54308">
        <ele>1180.37</ele>
        <time>2024-03-27T10:51:38.000Z</time>
      </trkpt>
      <trkpt lat="45.67146" lon="6.54324">
        <ele>1179.67</ele>
        <time>2024-03-27T10:51:53.000Z</time>
      </trkpt>
      <trkpt lat="45.67133" lon="6.54344">
        <ele>1178.66</ele>
        <time>2024-03-27T10:52:07.000Z</time>
      </trkpt>
      <trkpt lat="45.67122" lon="6.54366">
        <ele>1175.96</ele>
        <time>2024-03-27T10:52:22.000Z</time>
      </trkpt>
      <trkpt lat="45.67111" lon="6.54387">
        <ele>1172.66</ele>
        <time>2024-03-27T10:52:38.000Z</time>
      </trkpt>
      <trkpt lat="45.671" lon="6.54408">
        <ele>1170.97</ele>
        <time>2024-03-27T10:52:53.000Z</time>
      </trkpt>
      <trkpt lat="45.67083" lon="6.54418">
        <ele>1168.66</ele>
        <time>2024-03-27T10:53:07.000Z</time>
      </trkpt>
      <trkpt lat="45.67075" lon="6.54442">
        <ele>1165.66</ele>
        <time>2024-03-27T10:53:27.000Z</time>
      </trkpt>
      <trkpt lat="45.67094" lon="6.54444">
        <ele>1162.66</ele>
        <time>2024-03-27T10:53:48.000Z</time>
      </trkpt>
      <trkpt lat="45.67112" lon="6.54435">
        <ele>1160.66</ele>
        <time>2024-03-27T10:54:01.000Z</time>
      </trkpt>
      <trkpt lat="45.6713" lon="6.5443">
        <ele>1160.66</ele>
        <time>2024-03-27T10:54:15.000Z</time>
      </trkpt>
      <trkpt lat="45.67149" lon="6.5443">
        <ele>1159.95</ele>
        <time>2024-03-27T10:54:32.000Z</time>
      </trkpt>
      <trkpt lat="45.67167" lon="6.54436">
        <ele>1159.64</ele>
        <time>2024-03-27T10:54:49.000Z</time>
      </trkpt>
      <trkpt lat="45.67178" lon="6.54414">
        <ele>1159.66</ele>
        <time>2024-03-27T10:56:59.000Z</time>
      </trkpt>
      <trkpt lat="45.67194" lon="6.54402">
        <ele>1161.66</ele>
        <time>2024-03-27T10:57:17.000Z</time>
      </trkpt>
      <trkpt lat="45.6721" lon="6.54387">
        <ele>1163.44</ele>
        <time>2024-03-27T10:57:35.000Z</time>
      </trkpt>
      <trkpt lat="45.67227" lon="6.54396">
        <ele>1171.66</ele>
        <time>2024-03-27T10:59:00.000Z</time>
      </trkpt>
      <trkpt lat="45.67228" lon="6.54382">
        <ele>1173.53</ele>
        <time>2024-03-27T10:59:58.000Z</time>
      </trkpt>
      <trkpt lat="45.67222" lon="6.54357">
        <ele>1165.66</ele>
        <time>2024-03-27T11:00:14.000Z</time>
      </trkpt>
      <trkpt lat="45.67216" lon="6.54323">
        <ele>1173.36</ele>
        <time>2024-03-27T11:07:20.000Z</time>
      </trkpt>
      <trkpt lat="45.67227" lon="6.54412">
        <ele>1168.66</ele>
        <time>2024-03-27T11:07:20.000Z</time>
      </trkpt>
    </trkseg>
  </trk>
</gpx>